KFWZ

South Pass

South Pass, Wyoming, USA
METAR KFWZ 200055Z AUTO 26013G20KT 10SM BKN017 OVC050 00/M02 A2967 RMK AO2 TSNO
Observed Flight Rules
Jan-20 @ 00:55 UTC (29 minutes ago) Marginal Visual Flight Rules
Wind Visibility Clouds
260° at 13 knots
 Gusting to 20 knots
10 miles
  • Broken at 1,700' AGL
  • Overcast at 5,000' AGL
Temperatures Readings
Current 0°C / 32°F
Dewpoint -2°C / 28°F
Humidity 87%
Altimeter 29.67" Hg
Pressure 1005 hPa
Elevation 2588
METAR KFWZ 200055Z AUTO 26013G20KT 10SM BKN017 OVC050 00/M02 A2967 RMK AO2 TSNO
Observed Flight Rules
Jan-20 @ 00:55 UTC
(29 minutes ago)
MVFR
Wind Visibility
260° at 13 knots
 Gusting to 20 knots
10 miles
Clouds
  • Broken at 1,700' AGL
  • Overcast at 5,000' AGL
Temperature Dewpoint
0°C / 32°F -2°C / 28°F
Humidity Altimeter Pressure
87% 29.67" Hg 1005 hPa